Terminal Aerodrome Forecast
Issued by NWS

Home | Current Version | Previous Version | Text Only | Print | Product List | Glossary On
Versions: 1 2 3 4 5 6 7 8 9 10 11 12 13 14 15 16 17 18 19 20 21 22 23 24 25 26 27 28 29 30
000
FTUS41 KBUF 032300
TAFJHW
TAF
KJHW 032339Z 0400/0424 20014G20KT P6SM OVC007
     FM040300 23014G22KT P6SM VCSH OVC003
     FM040700 24014KT P6SM VCSH SCT003 OVC007
     FM041200 26010KT P6SM VCSH SCT003 OVC015
     FM041600 27012KT P6SM BKN025
     FM042100 28012KT P6SM SCT025 OVC050
      AMD LTD TO CLD VIS AND WIND=

USA.gov is the U.S. government's official web portal to all federal, state and local government web resources and services.